sensor_id;sensor_type;location;lat;lon;timestamp;P1;durP1;ratioP1;P2;durP2;ratioP2
72053;SDS011;59918;51.280;7.950;2023-05-07T00:02:14;2.33;;;2.15;;
72053;SDS011;59918;51.280;7.950;2023-05-07T00:04:39;3.00;;;2.70;;
72053;SDS011;59918;51.280;7.950;2023-05-07T00:07:04;4.53;;;2.30;;
72053;SDS011;59918;51.280;7.950;2023-05-07T00:09:30;3.58;;;2.63;;
72053;SDS011;59918;51.280;7.950;2023-05-07T00:11:55;3.03;;;2.83;;
72053;SDS011;59918;51.280;7.950;2023-05-07T00:14:20;3.15;;;2.90;;
72053;SDS011;59918;51.280;7.950;2023-05-07T00:16:48;4.43;;;2.90;;
72053;SDS011;59918;51.280;7.950;2023-05-07T00:19:14;2.95;;;2.67;;
72053;SDS011;59918;51.280;7.950;2023-05-07T00:21:39;5.03;;;2.80;;
72053;SDS011;59918;51.280;7.950;2023-05-07T00:24:04;2.83;;;2.63;;
72053;SDS011;59918;51.280;7.950;2023-05-07T00:26:29;4.20;;;2.70;;
72053;SDS011;59918;51.280;7.950;2023-05-07T00:28:55;3.70;;;2.60;;
72053;SDS011;59918;51.280;7.950;2023-05-07T00:31:20;3.70;;;2.50;;
72053;SDS011;59918;51.280;7.950;2023-05-07T00:33:49;4.30;;;2.60;;
72053;SDS011;59918;51.280;7.950;2023-05-07T00:36:14;2.50;;;2.30;;
72053;SDS011;59918;51.280;7.950;2023-05-07T00:38:39;5.60;;;2.55;;
72053;SDS011;59918;51.280;7.950;2023-05-07T00:41:04;3.20;;;2.40;;
72053;SDS011;59918;51.280;7.950;2023-05-07T00:43:29;5.22;;;2.17;;
72053;SDS011;59918;51.280;7.950;2023-05-07T00:45:55;2.33;;;2.22;;
72053;SDS011;59918;51.280;7.950;2023-05-07T00:48:20;3.53;;;2.03;;
72053;SDS011;59918;51.280;7.950;2023-05-07T00:50:49;2.50;;;2.30;;
72053;SDS011;59918;51.280;7.950;2023-05-07T00:53:14;3.08;;;2.40;;
72053;SDS011;59918;51.280;7.950;2023-05-07T00:55:42;5.38;;;1.67;;
72053;SDS011;59918;51.280;7.950;2023-05-07T00:58:07;2.72;;;2.00;;
72053;SDS011;59918;51.280;7.950;2023-05-07T01:00:33;4.20;;;2.15;;
72053;SDS011;59918;51.280;7.950;2023-05-07T01:03:01;2.40;;;2.00;;
72053;SDS011;59918;51.280;7.950;2023-05-07T01:05:26;4.07;;;2.20;;
72053;SDS011;59918;51.280;7.950;2023-05-07T01:07:53;1.75;;;1.65;;
72053;SDS011;59918;51.280;7.950;2023-05-07T01:10:20;3.10;;;2.10;;
72053;SDS011;59918;51.280;7.950;2023-05-07T01:12:45;5.22;;;2.05;;
72053;SDS011;59918;51.280;7.950;2023-05-07T01:15:15;2.05;;;1.95;;
72053;SDS011;59918;51.280;7.950;2023-05-07T01:17:41;2.97;;;1.85;;
72053;SDS011;59918;51.280;7.950;2023-05-07T01:20:07;2.22;;;2.13;;
72053;SDS011;59918;51.280;7.950;2023-05-07T01:22:39;1.73;;;1.63;;
72053;SDS011;59918;51.280;7.950;2023-05-07T01:25:05;3.55;;;1.77;;
72053;SDS011;59918;51.280;7.950;2023-05-07T01:27:31;2.60;;;2.40;;
72053;SDS011;59918;51.280;7.950;2023-05-07T01:29:57;2.00;;;1.90;;
72053;SDS011;59918;51.280;7.950;2023-05-07T01:32:29;2.20;;;2.00;;
72053;SDS011;59918;51.280;7.950;2023-05-07T01:34:57;2.70;;;2.20;;
72053;SDS011;59918;51.280;7.950;2023-05-07T01:37:26;5.43;;;2.65;;
72053;SDS011;59918;51.280;7.950;2023-05-07T01:39:52;3.13;;;2.05;;
72053;SDS011;59918;51.280;7.950;2023-05-07T01:42:18;2.92;;;2.35;;
72053;SDS011;59918;51.280;7.950;2023-05-07T01:44:44;2.97;;;2.60;;
72053;SDS011;59918;51.280;7.950;2023-05-07T01:47:09;2.97;;;2.70;;
72053;SDS011;59918;51.280;7.950;2023-05-07T01:49:37;4.72;;;3.15;;
72053;SDS011;59918;51.280;7.950;2023-05-07T01:52:03;2.95;;;2.75;;
72053;SDS011;59918;51.280;7.950;2023-05-07T01:54:28;3.53;;;2.17;;
72053;SDS011;59918;51.280;7.950;2023-05-07T01:56:55;2.72;;;2.20;;
72053;SDS011;59918;51.280;7.950;2023-05-07T01:59:25;1.83;;;1.73;;
72053;SDS011;59918;51.280;7.950;2023-05-07T02:01:50;3.67;;;2.25;;
72053;SDS011;59918;51.280;7.950;2023-05-07T02:04:15;2.28;;;2.10;;
72053;SDS011;59918;51.280;7.950;2023-05-07T02:06:41;2.75;;;2.00;;
72053;SDS011;59918;51.280;7.950;2023-05-07T02:09:06;6.78;;;2.67;;
72053;SDS011;59918;51.280;7.950;2023-05-07T02:11:31;3.42;;;2.65;;
72053;SDS011;59918;51.280;7.950;2023-05-07T02:13:56;4.88;;;3.13;;
72053;SDS011;59918;51.280;7.950;2023-05-07T02:16:25;6.95;;;2.78;;
72053;SDS011;59918;51.280;7.950;2023-05-07T02:18:51;3.00;;;2.80;;
72053;SDS011;59918;51.280;7.950;2023-05-07T02:21:16;3.65;;;2.60;;
72053;SDS011;59918;51.280;7.950;2023-05-07T02:23:41;3.30;;;2.55;;
72053;SDS011;59918;51.280;7.950;2023-05-07T02:26:06;3.42;;;2.38;;
72053;SDS011;59918;51.280;7.950;2023-05-07T02:28:32;6.50;;;2.47;;
72053;SDS011;59918;51.280;7.950;2023-05-07T02:30:57;5.63;;;2.55;;
72053;SDS011;59918;51.280;7.950;2023-05-07T02:33:28;2.63;;;2.42;;
72053;SDS011;59918;51.280;7.950;2023-05-07T02:35:56;2.67;;;2.47;;
72053;SDS011;59918;51.280;7.950;2023-05-07T02:38:22;2.25;;;2.15;;
72053;SDS011;59918;51.280;7.950;2023-05-07T02:40:51;4.00;;;2.38;;
72053;SDS011;59918;51.280;7.950;2023-05-07T02:43:16;2.80;;;2.60;;
72053;SDS011;59918;51.280;7.950;2023-05-07T02:45:41;2.38;;;2.15;;
72053;SDS011;59918;51.280;7.950;2023-05-07T02:48:06;8.57;;;3.80;;
72053;SDS011;59918;51.280;7.950;2023-05-07T02:50:32;2.95;;;2.60;;
72053;SDS011;59918;51.280;7.950;2023-05-07T02:52:57;3.08;;;2.83;;
72053;SDS011;59918;51.280;7.950;2023-05-07T02:55:31;2.50;;;2.30;;
72053;SDS011;59918;51.280;7.950;2023-05-07T02:57:56;3.28;;;2.97;;
72053;SDS011;59918;51.280;7.950;2023-05-07T03:00:21;3.78;;;3.28;;
72053;SDS011;59918;51.280;7.950;2023-05-07T03:02:50;4.40;;;3.67;;
72053;SDS011;59918;51.280;7.950;2023-05-07T03:05:15;5.15;;;3.38;;
72053;SDS011;59918;51.280;7.950;2023-05-07T03:07:40;4.03;;;3.63;;
72053;SDS011;59918;51.280;7.950;2023-05-07T03:10:06;7.13;;;3.53;;
72053;SDS011;59918;51.280;7.950;2023-05-07T03:12:32;4.25;;;3.30;;
72053;SDS011;59918;51.280;7.950;2023-05-07T03:14:57;6.13;;;3.58;;
72053;SDS011;59918;51.280;7.950;2023-05-07T03:17:28;3.63;;;3.22;;
72053;SDS011;59918;51.280;7.950;2023-05-07T03:19:54;6.97;;;3.57;;
72053;SDS011;59918;51.280;7.950;2023-05-07T03:22:19;4.30;;;3.20;;
72053;SDS011;59918;51.280;7.950;2023-05-07T03:24:44;4.63;;;4.00;;
72053;SDS011;59918;51.280;7.950;2023-05-07T03:27:10;4.07;;;3.67;;
72053;SDS011;59918;51.280;7.950;2023-05-07T03:29:38;4.95;;;3.83;;
72053;SDS011;59918;51.280;7.950;2023-05-07T03:32:03;5.53;;;4.05;;
72053;SDS011;59918;51.280;7.950;2023-05-07T03:34:29;4.68;;;4.25;;
72053;SDS011;59918;51.280;7.950;2023-05-07T03:36:54;7.28;;;4.00;;
72053;SDS011;59918;51.280;7.950;2023-05-07T03:39:19;4.22;;;3.88;;
72053;SDS011;59918;51.280;7.950;2023-05-07T03:41:44;4.35;;;3.92;;
72053;SDS011;59918;51.280;7.950;2023-05-07T03:44:10;4.45;;;3.85;;
72053;SDS011;59918;51.280;7.950;2023-05-07T03:46:38;6.53;;;3.97;;
72053;SDS011;59918;51.280;7.950;2023-05-07T03:49:03;3.65;;;3.33;;
72053;SDS011;59918;51.280;7.950;2023-05-07T03:51:29;5.38;;;3.60;;
72053;SDS011;59918;51.280;7.950;2023-05-07T03:53:55;4.50;;;3.63;;
72053;SDS011;59918;51.280;7.950;2023-05-07T03:56:20;4.97;;;4.10;;
72053;SDS011;59918;51.280;7.950;2023-05-07T03:58:45;5.18;;;4.03;;
72053;SDS011;59918;51.280;7.950;2023-05-07T04:01:15;8.88;;;4.25;;
72053;SDS011;59918;51.280;7.950;2023-05-07T04:03:41;4.88;;;3.67;;
72053;SDS011;59918;51.280;7.950;2023-05-07T04:06:06;4.00;;;3.60;;
72053;SDS011;59918;51.280;7.950;2023-05-07T04:08:31;3.95;;;3.55;;
72053;SDS011;59918;51.280;7.950;2023-05-07T04:10:57;5.90;;;3.80;;
72053;SDS011;59918;51.280;7.950;2023-05-07T04:13:23;4.28;;;3.88;;
72053;SDS011;59918;51.280;7.950;2023-05-07T04:15:51;8.32;;;3.90;;
72053;SDS011;59918;51.280;7.950;2023-05-07T04:18:17;4.85;;;3.80;;
72053;SDS011;59918;51.280;7.950;2023-05-07T04:20:42;7.03;;;3.63;;
72053;SDS011;59918;51.280;7.950;2023-05-07T04:23:08;7.80;;;4.60;;
72053;SDS011;59918;51.280;7.950;2023-05-07T04:25:35;4.85;;;4.13;;
72053;SDS011;59918;51.280;7.950;2023-05-07T04:28:06;5.03;;;3.97;;
72053;SDS011;59918;51.280;7.950;2023-05-07T04:33:35;8.68;;;4.25;;
72053;SDS011;59918;51.280;7.950;2023-05-07T04:36:01;7.20;;;3.95;;
72053;SDS011;59918;51.280;7.950;2023-05-07T04:38:27;6.05;;;4.25;;
72053;SDS011;59918;51.280;7.950;2023-05-07T04:40:52;7.35;;;4.65;;
72053;SDS011;59918;51.280;7.950;2023-05-07T04:43:17;5.40;;;3.72;;
72053;SDS011;59918;51.280;7.950;2023-05-07T04:45:42;4.10;;;3.80;;
72053;SDS011;59918;51.280;7.950;2023-05-07T04:48:14;4.05;;;3.67;;
72053;SDS011;59918;51.280;7.950;2023-05-07T04:50:39;7.10;;;4.13;;
72053;SDS011;59918;51.280;7.950;2023-05-07T04:53:04;4.30;;;4.00;;
72053;SDS011;59918;51.280;7.950;2023-05-07T04:55:29;4.68;;;3.90;;
72053;SDS011;59918;51.280;7.950;2023-05-07T04:57:55;4.38;;;3.97;;
72053;SDS011;59918;51.280;7.950;2023-05-07T05:00:23;4.90;;;4.38;;
72053;SDS011;59918;51.280;7.950;2023-05-07T05:02:48;5.60;;;3.88;;
72053;SDS011;59918;51.280;7.950;2023-05-07T05:05:14;4.72;;;4.30;;
72053;SDS011;59918;51.280;7.950;2023-05-07T05:07:39;5.82;;;4.38;;
72053;SDS011;59918;51.280;7.950;2023-05-07T05:10:04;5.18;;;4.78;;
72053;SDS011;59918;51.280;7.950;2023-05-07T05:12:30;5.32;;;4.82;;
72053;SDS011;59918;51.280;7.950;2023-05-07T05:14:55;5.20;;;4.55;;
72053;SDS011;59918;51.280;7.950;2023-05-07T05:17:24;4.93;;;4.50;;
72053;SDS011;59918;51.280;7.950;2023-05-07T05:19:49;5.60;;;5.15;;
72053;SDS011;59918;51.280;7.950;2023-05-07T05:22:14;7.85;;;5.60;;
72053;SDS011;59918;51.280;7.950;2023-05-07T05:24:39;5.90;;;5.40;;
72053;SDS011;59918;51.280;7.950;2023-05-07T05:27:05;5.80;;;5.30;;
72053;SDS011;59918;51.280;7.950;2023-05-07T05:29:31;5.53;;;5.13;;
72053;SDS011;59918;51.280;7.950;2023-05-07T05:31:57;7.32;;;5.10;;
72053;SDS011;59918;51.280;7.950;2023-05-07T05:34:22;5.65;;;5.15;;
72053;SDS011;59918;51.280;7.950;2023-05-07T05:36:47;6.18;;;4.78;;
72053;SDS011;59918;51.280;7.950;2023-05-07T05:39:21;6.55;;;5.63;;
72053;SDS011;59918;51.280;7.950;2023-05-07T05:41:46;5.15;;;4.65;;
72053;SDS011;59918;51.280;7.950;2023-05-07T05:44:12;6.38;;;5.35;;
72053;SDS011;59918;51.280;7.950;2023-05-07T05:46:37;5.05;;;4.75;;
72053;SDS011;59918;51.280;7.950;2023-05-07T05:49:02;5.70;;;4.88;;
72053;SDS011;59918;51.280;7.950;2023-05-07T05:51:27;5.00;;;4.60;;
72053;SDS011;59918;51.280;7.950;2023-05-07T05:53:53;5.53;;;5.00;;
72053;SDS011;59918;51.280;7.950;2023-05-07T05:56:18;5.05;;;4.65;;
72053;SDS011;59918;51.280;7.950;2023-05-07T05:58:43;4.80;;;4.40;;
72053;SDS011;59918;51.280;7.950;2023-05-07T06:01:12;10.13;;;5.25;;
72053;SDS011;59918;51.280;7.950;2023-05-07T06:03:40;6.10;;;5.05;;
72053;SDS011;59918;51.280;7.950;2023-05-07T06:06:05;5.82;;;4.63;;
72053;SDS011;59918;51.280;7.950;2023-05-07T06:08:30;4.95;;;4.65;;
72053;SDS011;59918;51.280;7.950;2023-05-07T06:10:56;5.57;;;5.13;;
72053;SDS011;59918;51.280;7.950;2023-05-07T06:13:24;5.22;;;4.72;;
72053;SDS011;59918;51.280;7.950;2023-05-07T06:15:49;6.03;;;5.07;;
72053;SDS011;59918;51.280;7.950;2023-05-07T06:18:14;6.90;;;4.57;;
72053;SDS011;59918;51.280;7.950;2023-05-07T06:20:40;5.90;;;5.30;;
72053;SDS011;59918;51.280;7.950;2023-05-07T06:23:05;5.38;;;4.97;;
72053;SDS011;59918;51.280;7.950;2023-05-07T06:25:30;5.97;;;4.35;;
72053;SDS011;59918;51.280;7.950;2023-05-07T06:27:55;4.93;;;4.53;;
72053;SDS011;59918;51.280;7.950;2023-05-07T06:30:24;4.47;;;4.05;;
72053;SDS011;59918;51.280;7.950;2023-05-07T06:32:49;5.95;;;4.75;;
72053;SDS011;59918;51.280;7.950;2023-05-07T06:35:15;4.55;;;4.18;;
72053;SDS011;59918;51.280;7.950;2023-05-07T06:37:41;4.93;;;4.53;;
72053;SDS011;59918;51.280;7.950;2023-05-07T06:40:07;4.80;;;4.40;;
72053;SDS011;59918;51.280;7.950;2023-05-07T06:42:32;7.85;;;4.30;;
72053;SDS011;59918;51.280;7.950;2023-05-07T06:45:00;5.22;;;4.30;;
72053;SDS011;59918;51.280;7.950;2023-05-07T06:47:26;6.40;;;3.97;;
72053;SDS011;59918;51.280;7.950;2023-05-07T06:49:51;4.03;;;3.78;;
72053;SDS011;59918;51.280;7.950;2023-05-07T06:52:16;3.70;;;3.40;;
72053;SDS011;59918;51.280;7.950;2023-05-07T06:54:42;3.53;;;3.33;;
72053;SDS011;59918;51.280;7.950;2023-05-07T06:57:07;3.50;;;3.30;;
72053;SDS011;59918;51.280;7.950;2023-05-07T06:59:32;4.15;;;3.40;;
72053;SDS011;59918;51.280;7.950;2023-05-07T07:02:03;4.82;;;3.55;;
72053;SDS011;59918;51.280;7.950;2023-05-07T07:04:28;4.95;;;3.30;;
72053;SDS011;59918;51.280;7.950;2023-05-07T07:06:54;3.80;;;3.50;;
72053;SDS011;59918;51.280;7.950;2023-05-07T07:09:19;3.80;;;3.42;;
72053;SDS011;59918;51.280;7.950;2023-05-07T07:11:44;3.50;;;3.30;;
72053;SDS011;59918;51.280;7.950;2023-05-07T07:14:16;3.40;;;3.10;;
72053;SDS011;59918;51.280;7.950;2023-05-07T07:16:41;5.83;;;3.60;;
72053;SDS011;59918;51.280;7.950;2023-05-07T07:19:06;2.50;;;2.17;;
72053;SDS011;59918;51.280;7.950;2023-05-07T07:21:32;5.68;;;2.78;;
72053;SDS011;59918;51.280;7.950;2023-05-07T07:23:57;3.00;;;2.65;;
72053;SDS011;59918;51.280;7.950;2023-05-07T07:26:25;2.65;;;2.45;;
72053;SDS011;59918;51.280;7.950;2023-05-07T07:28:51;3.00;;;2.58;;
72053;SDS011;59918;51.280;7.950;2023-05-07T07:31:16;2.38;;;2.17;;
72053;SDS011;59918;51.280;7.950;2023-05-07T07:33:41;2.65;;;2.40;;
72053;SDS011;59918;51.280;7.950;2023-05-07T07:36:06;2.92;;;2.00;;
72053;SDS011;59918;51.280;7.950;2023-05-07T07:38:32;3.03;;;2.40;;
72053;SDS011;59918;51.280;7.950;2023-05-07T07:40:58;2.30;;;2.15;;
72053;SDS011;59918;51.280;7.950;2023-05-07T07:43:26;2.70;;;2.03;;
72053;SDS011;59918;51.280;7.950;2023-05-07T07:45:51;2.55;;;2.15;;
72053;SDS011;59918;51.280;7.950;2023-05-07T07:48:16;2.38;;;2.17;;
72053;SDS011;59918;51.280;7.950;2023-05-07T07:50:41;2.25;;;2.10;;
72053;SDS011;59918;51.280;7.950;2023-05-07T07:53:07;2.13;;;2.03;;
72053;SDS011;59918;51.280;7.950;2023-05-07T07:55:32;1.98;;;1.88;;
72053;SDS011;59918;51.280;7.950;2023-05-07T07:57:57;2.22;;;2.00;;
72053;SDS011;59918;51.280;7.950;2023-05-07T08:00:22;1.98;;;1.77;;
72053;SDS011;59918;51.280;7.950;2023-05-07T08:02:51;2.45;;;2.30;;
72053;SDS011;59918;51.280;7.950;2023-05-07T08:05:16;5.28;;;2.10;;
72053;SDS011;59918;51.280;7.950;2023-05-07T08:07:41;1.98;;;1.88;;
72053;SDS011;59918;51.280;7.950;2023-05-07T08:10:07;3.38;;;1.90;;
72053;SDS011;59918;51.280;7.950;2023-05-07T08:12:32;3.50;;;1.67;;
72053;SDS011;59918;51.280;7.950;2023-05-07T08:14:58;2.00;;;1.80;;
72053;SDS011;59918;51.280;7.950;2023-05-07T08:17:26;2.30;;;1.67;;
72053;SDS011;59918;51.280;7.950;2023-05-07T08:19:52;3.15;;;1.40;;
72053;SDS011;59918;51.280;7.950;2023-05-07T08:22:17;2.42;;;1.65;;
72053;SDS011;59918;51.280;7.950;2023-05-07T08:24:42;1.98;;;1.48;;
72053;SDS011;59918;51.280;7.950;2023-05-07T08:27:07;3.90;;;1.60;;
72053;SDS011;59918;51.280;7.950;2023-05-07T08:29:33;1.73;;;1.63;;
72053;SDS011;59918;51.280;7.950;2023-05-07T08:31:58;4.47;;;1.77;;
72053;SDS011;59918;51.280;7.950;2023-05-07T08:34:27;1.92;;;1.42;;
72053;SDS011;59918;51.280;7.950;2023-05-07T08:36:52;2.45;;;1.40;;
72053;SDS011;59918;51.280;7.950;2023-05-07T08:39:17;1.70;;;1.30;;
72053;SDS011;59918;51.280;7.950;2023-05-07T08:41:44;1.85;;;1.52;;
72053;SDS011;59918;51.280;7.950;2023-05-07T08:44:11;3.75;;;1.25;;
72053;SDS011;59918;51.280;7.950;2023-05-07T08:46:45;3.03;;;1.20;;
72053;SDS011;59918;51.280;7.950;2023-05-07T08:49:17;1.58;;;1.40;;
72053;SDS011;59918;51.280;7.950;2023-05-07T08:51:43;1.67;;;1.45;;
72053;SDS011;59918;51.280;7.950;2023-05-07T08:54:08;1.75;;;1.10;;
72053;SDS011;59918;51.280;7.950;2023-05-07T08:56:35;1.50;;;1.40;;
72053;SDS011;59918;51.280;7.950;2023-05-07T08:59:06;1.67;;;1.58;;
72053;SDS011;59918;51.280;7.950;2023-05-07T09:01:31;3.40;;;1.57;;
72053;SDS011;59918;51.280;7.950;2023-05-07T09:03:57;3.08;;;1.60;;
72053;SDS011;59918;51.280;7.950;2023-05-07T09:06:23;1.65;;;1.33;;
72053;SDS011;59918;51.280;7.950;2023-05-07T09:08:54;2.63;;;1.27;;
72053;SDS011;59918;51.280;7.950;2023-05-07T09:11:20;3.03;;;1.45;;
72053;SDS011;59918;51.280;7.950;2023-05-07T09:13:55;1.65;;;1.55;;
72053;SDS011;59918;51.280;7.950;2023-05-07T09:16:21;1.85;;;1.38;;
72053;SDS011;59918;51.280;7.950;2023-05-07T09:18:48;2.60;;;1.70;;
72053;SDS011;59918;51.280;7.950;2023-05-07T09:21:20;1.90;;;1.80;;
72053;SDS011;59918;51.280;7.950;2023-05-07T09:23:53;3.67;;;1.90;;
72053;SDS011;59918;51.280;7.950;2023-05-07T09:26:23;2.75;;;2.10;;
72053;SDS011;59918;51.280;7.950;2023-05-07T09:28:55;2.13;;;1.40;;
72053;SDS011;59918;51.280;7.950;2023-05-07T09:31:20;1.52;;;1.42;;
72053;SDS011;59918;51.280;7.950;2023-05-07T09:33:46;1.70;;;1.60;;
72053;SDS011;59918;51.280;7.950;2023-05-07T09:36:11;2.63;;;1.70;;
72053;SDS011;59918;51.280;7.950;2023-05-07T09:38:42;2.38;;;2.15;;
72053;SDS011;59918;51.280;7.950;2023-05-07T09:41:09;2.63;;;1.80;;
72053;SDS011;59918;51.280;7.950;2023-05-07T09:43:36;1.92;;;1.80;;
72053;SDS011;59918;51.280;7.950;2023-05-07T09:46:08;1.95;;;1.65;;
72053;SDS011;59918;51.280;7.950;2023-05-07T09:48:46;1.70;;;1.60;;
72053;SDS011;59918;51.280;7.950;2023-05-07T09:53:56;1.90;;;1.60;;
72053;SDS011;59918;51.280;7.950;2023-05-07T09:56:22;1.75;;;1.50;;
72053;SDS011;59918;51.280;7.950;2023-05-07T09:58:47;2.60;;;1.77;;
72053;SDS011;59918;51.280;7.950;2023-05-07T10:01:17;2.28;;;2.10;;
72053;SDS011;59918;51.280;7.950;2023-05-07T10:03:42;1.85;;;1.75;;
72053;SDS011;59918;51.280;7.950;2023-05-07T10:06:09;1.80;;;1.70;;
72053;SDS011;59918;51.280;7.950;2023-05-07T10:08:35;3.65;;;1.55;;
72053;SDS011;59918;51.280;7.950;2023-05-07T10:11:04;3.63;;;1.85;;
72053;SDS011;59918;51.280;7.950;2023-05-07T10:13:33;2.58;;;1.80;;
72053;SDS011;59918;51.280;7.950;2023-05-07T10:15:58;4.63;;;1.50;;
72053;SDS011;59918;51.280;7.950;2023-05-07T10:18:31;2.25;;;2.03;;
72053;SDS011;59918;51.280;7.950;2023-05-07T10:20:57;1.75;;;1.65;;
72053;SDS011;59918;51.280;7.950;2023-05-07T10:23:32;2.15;;;1.92;;
72053;SDS011;59918;51.280;7.950;2023-05-07T10:25:59;1.90;;;1.80;;
72053;SDS011;59918;51.280;7.950;2023-05-07T10:28:28;2.40;;;2.30;;
72053;SDS011;59918;51.280;7.950;2023-05-07T10:33:22;2.40;;;2.20;;
72053;SDS011;59918;51.280;7.950;2023-05-07T10:35:57;3.05;;;2.72;;
72053;SDS011;59918;51.280;7.950;2023-05-07T10:38:27;9.45;;;2.67;;
72053;SDS011;59918;51.280;7.950;2023-05-07T10:40:53;3.85;;;3.55;;
72053;SDS011;59918;51.280;7.950;2023-05-07T10:43:18;3.10;;;2.90;;
72053;SDS011;59918;51.280;7.950;2023-05-07T10:45:45;2.85;;;2.65;;
72053;SDS011;59918;51.280;7.950;2023-05-07T10:51:29;3.00;;;2.80;;
72053;SDS011;59918;51.280;7.950;2023-05-07T10:56:41;2.92;;;2.67;;
72053;SDS011;59918;51.280;7.950;2023-05-07T11:01:54;2.28;;;2.08;;
72053;SDS011;59918;51.280;7.950;2023-05-07T11:04:20;2.80;;;2.05;;
72053;SDS011;59918;51.280;7.950;2023-05-07T11:17:31;2.58;;;2.38;;
72053;SDS011;59918;51.280;7.950;2023-05-07T11:19:57;2.40;;;1.95;;
72053;SDS011;59918;51.280;7.950;2023-05-07T11:25:00;4.60;;;2.95;;
72053;SDS011;59918;51.280;7.950;2023-05-07T11:27:27;2.70;;;2.50;;
72053;SDS011;59918;51.280;7.950;2023-05-07T11:29:56;3.30;;;2.28;;
72053;SDS011;59918;51.280;7.950;2023-05-07T11:32:28;3.58;;;2.40;;
72053;SDS011;59918;51.280;7.950;2023-05-07T11:34:55;2.33;;;2.22;;
72053;SDS011;59918;51.280;7.950;2023-05-07T11:37:22;2.83;;;2.63;;
72053;SDS011;59918;51.280;7.950;2023-05-07T11:40:01;2.70;;;2.50;;
72053;SDS011;59918;51.280;7.950;2023-05-07T11:44:57;4.18;;;2.50;;
72053;SDS011;59918;51.280;7.950;2023-05-07T11:47:22;2.45;;;2.28;;
72053;SDS011;59918;51.280;7.950;2023-05-07T11:49:52;2.85;;;2.40;;
72053;SDS011;59918;51.280;7.950;2023-05-07T11:52:20;10.88;;;4.30;;
72053;SDS011;59918;51.280;7.950;2023-05-07T11:54:53;3.83;;;2.53;;
72053;SDS011;59918;51.280;7.950;2023-05-07T11:57:20;2.47;;;2.22;;
72053;SDS011;59918;51.280;7.950;2023-05-07T11:59:46;2.60;;;2.50;;
72053;SDS011;59918;51.280;7.950;2023-05-07T12:02:13;2.95;;;2.45;;
72053;SDS011;59918;51.280;7.950;2023-05-07T12:04:44;4.97;;;2.70;;
72053;SDS011;59918;51.280;7.950;2023-05-07T12:07:15;2.95;;;2.75;;
72053;SDS011;59918;51.280;7.950;2023-05-07T12:09:41;4.13;;;3.05;;
72053;SDS011;59918;51.280;7.950;2023-05-07T12:12:07;3.63;;;3.42;;
72053;SDS011;59918;51.280;7.950;2023-05-07T12:14:37;3.03;;;2.83;;
72053;SDS011;59918;51.280;7.950;2023-05-07T12:17:09;3.80;;;3.47;;
72053;SDS011;59918;51.280;7.950;2023-05-07T12:19:36;3.60;;;3.30;;
72053;SDS011;59918;51.280;7.950;2023-05-07T12:22:08;4.22;;;3.10;;
72053;SDS011;59918;51.280;7.950;2023-05-07T12:24:44;3.00;;;2.80;;
72053;SDS011;59918;51.280;7.950;2023-05-07T12:27:17;3.33;;;3.13;;
72053;SDS011;59918;51.280;7.950;2023-05-07T12:29:56;4.82;;;3.25;;
72053;SDS011;59918;51.280;7.950;2023-05-07T12:32:22;4.53;;;4.13;;
72053;SDS011;59918;51.280;7.950;2023-05-07T12:34:54;4.97;;;4.43;;
72053;SDS011;59918;51.280;7.950;2023-05-07T12:37:22;4.83;;;3.43;;
72053;SDS011;59918;51.280;7.950;2023-05-07T12:40:05;3.67;;;3.38;;
72053;SDS011;59918;51.280;7.950;2023-05-07T12:42:40;4.60;;;3.58;;
72053;SDS011;59918;51.280;7.950;2023-05-07T12:48:05;4.03;;;3.63;;
72053;SDS011;59918;51.280;7.950;2023-05-07T12:50:31;7.53;;;4.40;;
72053;SDS011;59918;51.280;7.950;2023-05-07T12:52:56;8.88;;;3.85;;
72053;SDS011;59918;51.280;7.950;2023-05-07T12:55:22;4.72;;;4.28;;
72053;SDS011;59918;51.280;7.950;2023-05-07T12:57:48;4.45;;;4.05;;
72053;SDS011;59918;51.280;7.950;2023-05-07T13:00:17;4.60;;;4.20;;
72053;SDS011;59918;51.280;7.950;2023-05-07T13:02:58;5.93;;;4.47;;
72053;SDS011;59918;51.280;7.950;2023-05-07T13:05:26;6.60;;;4.57;;
72053;SDS011;59918;51.280;7.950;2023-05-07T13:07:52;4.75;;;4.35;;
72053;SDS011;59918;51.280;7.950;2023-05-07T13:10:18;5.10;;;4.55;;
72053;SDS011;59918;51.280;7.950;2023-05-07T13:12:43;6.53;;;5.13;;
72053;SDS011;59918;51.280;7.950;2023-05-07T13:15:09;6.20;;;4.70;;
72053;SDS011;59918;51.280;7.950;2023-05-07T13:17:34;5.50;;;4.68;;
72053;SDS011;59918;51.280;7.950;2023-05-07T13:20:05;4.03;;;3.72;;
72053;SDS011;59918;51.280;7.950;2023-05-07T13:22:34;4.85;;;4.35;;
72053;SDS011;59918;51.280;7.950;2023-05-07T13:24:59;8.43;;;4.10;;
72053;SDS011;59918;51.280;7.950;2023-05-07T13:27:33;4.18;;;3.88;;
72053;SDS011;59918;51.280;7.950;2023-05-07T13:29:58;3.20;;;2.95;;
72053;SDS011;59918;51.280;7.950;2023-05-07T13:32:29;5.07;;;2.38;;
72053;SDS011;59918;51.280;7.950;2023-05-07T13:34:55;2.45;;;1.92;;
72053;SDS011;59918;51.280;7.950;2023-05-07T13:37:20;2.20;;;2.10;;
72053;SDS011;59918;51.280;7.950;2023-05-07T13:39:46;2.50;;;2.30;;
72053;SDS011;59918;51.280;7.950;2023-05-07T13:42:11;3.00;;;2.80;;
72053;SDS011;59918;51.280;7.950;2023-05-07T13:44:42;2.50;;;2.40;;
72053;SDS011;59918;51.280;7.950;2023-05-07T13:47:07;2.90;;;2.40;;
72053;SDS011;59918;51.280;7.950;2023-05-07T13:49:32;8.05;;;3.00;;
72053;SDS011;59918;51.280;7.950;2023-05-07T13:51:58;3.13;;;2.83;;
72053;SDS011;59918;51.280;7.950;2023-05-07T13:54:23;3.03;;;2.80;;
72053;SDS011;59918;51.280;7.950;2023-05-07T13:56:51;2.35;;;2.15;;
72053;SDS011;59918;51.280;7.950;2023-05-07T13:59:16;2.55;;;2.35;;
72053;SDS011;59918;51.280;7.950;2023-05-07T14:01:42;2.58;;;2.38;;
72053;SDS011;59918;51.280;7.950;2023-05-07T14:04:07;1.80;;;1.70;;
72053;SDS011;59918;51.280;7.950;2023-05-07T14:06:32;1.80;;;1.70;;
72053;SDS011;59918;51.280;7.950;2023-05-07T14:08:57;2.83;;;1.73;;
72053;SDS011;59918;51.280;7.950;2023-05-07T14:11:23;3.22;;;2.08;;
72053;SDS011;59918;51.280;7.950;2023-05-07T14:13:51;1.92;;;1.83;;
72053;SDS011;59918;51.280;7.950;2023-05-07T14:16:17;1.65;;;1.52;;
72053;SDS011;59918;51.280;7.950;2023-05-07T14:18:42;2.40;;;2.08;;
72053;SDS011;59918;51.280;7.950;2023-05-07T14:21:07;4.35;;;1.70;;
72053;SDS011;59918;51.280;7.950;2023-05-07T14:23:35;1.70;;;1.60;;
72053;SDS011;59918;51.280;7.950;2023-05-07T14:26:09;2.08;;;1.65;;
72053;SDS011;59918;51.280;7.950;2023-05-07T14:28:35;3.55;;;1.73;;
72053;SDS011;59918;51.280;7.950;2023-05-07T14:31:06;2.63;;;1.55;;
72053;SDS011;59918;51.280;7.950;2023-05-07T14:33:31;2.10;;;2.00;;
72053;SDS011;59918;51.280;7.950;2023-05-07T14:35:56;1.88;;;1.77;;
72053;SDS011;59918;51.280;7.950;2023-05-07T14:38:22;2.78;;;2.05;;
72053;SDS011;59918;51.280;7.950;2023-05-07T14:40:47;2.85;;;2.63;;
72053;SDS011;59918;51.280;7.950;2023-05-07T14:43:18;2.03;;;1.83;;
72053;SDS011;59918;51.280;7.950;2023-05-07T14:45:43;1.60;;;1.33;;
72053;SDS011;59918;51.280;7.950;2023-05-07T14:48:08;1.60;;;1.45;;
72053;SDS011;59918;51.280;7.950;2023-05-07T14:50:34;1.45;;;1.35;;
72053;SDS011;59918;51.280;7.950;2023-05-07T14:52:59;1.42;;;1.38;;
72053;SDS011;59918;51.280;7.950;2023-05-07T14:55:27;2.70;;;1.50;;
72053;SDS011;59918;51.280;7.950;2023-05-07T14:57:53;1.83;;;1.38;;
72053;SDS011;59918;51.280;7.950;2023-05-07T15:00:18;1.48;;;1.38;;
72053;SDS011;59918;51.280;7.950;2023-05-07T15:02:43;1.40;;;1.30;;
72053;SDS011;59918;51.280;7.950;2023-05-07T15:05:09;1.75;;;1.60;;
72053;SDS011;59918;51.280;7.950;2023-05-07T15:07:34;1.60;;;1.50;;
72053;SDS011;59918;51.280;7.950;2023-05-07T15:09:59;5.10;;;2.08;;
72053;SDS011;59918;51.280;7.950;2023-05-07T15:12:30;2.35;;;1.58;;
72053;SDS011;59918;51.280;7.950;2023-05-07T15:14:58;5.00;;;2.88;;
72053;SDS011;59918;51.280;7.950;2023-05-07T15:17:23;2.85;;;2.38;;
72053;SDS011;59918;51.280;7.950;2023-05-07T15:19:52;2.00;;;1.90;;
72053;SDS011;59918;51.280;7.950;2023-05-07T15:22:17;1.92;;;1.83;;